createdAt,value
2019-01-20T00:01:13.682Z,4.70
2019-01-20T00:03:43.312Z,9.73
2019-01-20T00:06:13.026Z,14.30
2019-01-20T00:08:42.605Z,7.28
2019-01-20T00:11:16.502Z,9.30
2019-01-20T00:13:43.486Z,7.53
2019-01-20T00:16:15.403Z,9.25
2019-01-20T00:18:45.047Z,4.53
2019-01-20T00:21:14.639Z,5.08
2019-01-20T00:23:44.233Z,5.97
2019-01-20T00:26:13.716Z,5.30
2019-01-20T00:28:43.228Z,5.40
2019-01-20T00:31:12.753Z,3.58
2019-01-20T00:33:42.313Z,6.70
2019-01-20T00:36:11.879Z,5.35
2019-01-20T00:38:41.462Z,3.52
2019-01-20T00:41:10.964Z,3.50
2019-01-20T00:43:40.508Z,3.72
2019-01-20T00:46:10.117Z,5.37
2019-01-20T00:48:39.628Z,3.67
2019-01-20T00:51:09.454Z,5.33
2019-01-20T00:53:38.948Z,3.52
2019-01-20T00:56:08.561Z,7.75
2019-01-20T00:58:38.083Z,3.40
2019-01-20T01:01:07.817Z,3.87
2019-01-20T01:03:37.360Z,3.55
2019-01-20T01:06:06.893Z,3.62
2019-01-20T01:08:36.489Z,6.12
2019-01-20T01:11:06.119Z,6.72
2019-01-20T01:13:35.695Z,5.47
2019-01-20T01:16:05.423Z,2.27
2019-01-20T01:18:35.027Z,7.75
2019-01-20T01:21:04.576Z,3.55
2019-01-20T01:23:34.152Z,7.75
2019-01-20T01:26:06.707Z,3.77
2019-01-20T01:28:36.273Z,5.15
2019-01-20T01:31:05.931Z,5.10
2019-01-20T01:33:35.567Z,6.20
2019-01-20T01:36:05.048Z,4.55
2019-01-20T01:38:34.649Z,5.08
2019-01-20T01:41:05.720Z,5.45
2019-01-20T01:43:35.223Z,6.60
2019-01-20T01:46:09.430Z,5.85
2019-01-20T01:48:38.943Z,5.60
2019-01-20T01:51:08.521Z,22.37
2019-01-20T01:53:38.048Z,2.83
2019-01-20T01:56:07.658Z,2.90
2019-01-20T01:58:37.159Z,4.78
2019-01-20T02:01:06.830Z,3.52
2019-01-20T02:03:36.460Z,3.47
2019-01-20T02:06:07.049Z,4.83
2019-01-20T02:08:36.558Z,7.28
2019-01-20T02:11:06.249Z,9.85
2019-01-20T02:13:35.789Z,7.10
2019-01-20T02:16:05.435Z,4.70
2019-01-20T02:18:34.938Z,5.05
2019-01-20T02:21:04.506Z,3.33
2019-01-20T02:23:34.143Z,4.55
2019-01-20T02:26:05.990Z,6.65
2019-01-20T02:28:36.432Z,6.53
2019-01-20T02:31:06.109Z,2.27
2019-01-20T02:33:35.593Z,5.20
2019-01-20T02:36:05.251Z,4.40
2019-01-20T02:38:34.798Z,8.00
2019-01-20T02:41:04.419Z,4.30
2019-01-20T02:43:33.995Z,3.05
2019-01-20T02:46:03.571Z,2.95
2019-01-20T02:48:33.086Z,2.65
2019-01-20T02:51:02.662Z,3.40
2019-01-20T02:53:32.221Z,2.52
2019-01-20T02:56:01.813Z,6.42
2019-01-20T02:58:33.312Z,3.65
2019-01-20T03:01:02.870Z,7.72
2019-01-20T03:03:32.420Z,3.15
2019-01-20T03:06:01.892Z,7.87
2019-01-20T03:08:31.552Z,3.02
2019-01-20T03:11:01.024Z,6.40
2019-01-20T03:13:30.545Z,5.37
2019-01-20T03:16:00.138Z,2.45
2019-01-20T03:18:29.895Z,5.15
2019-01-20T03:20:59.411Z,2.40
2019-01-20T03:23:28.916Z,4.85
2019-01-20T03:25:58.455Z,2.33
2019-01-20T03:28:28.028Z,4.00
2019-01-20T03:30:57.555Z,3.12
2019-01-20T03:33:27.105Z,4.08
2019-01-20T03:35:56.728Z,3.08
2019-01-20T03:38:26.352Z,4.40
2019-01-20T03:40:55.928Z,5.12
2019-01-20T03:43:25.470Z,5.28
2019-01-20T03:45:58.282Z,4.35
2019-01-20T03:48:27.789Z,3.40
2019-01-20T03:50:57.301Z,3.27
2019-01-20T03:53:26.862Z,3.15
2019-01-20T03:56:04.904Z,4.22
2019-01-20T03:58:35.112Z,2.52
2019-01-20T04:01:04.878Z,3.72
2019-01-20T04:03:34.359Z,2.98
2019-01-20T04:06:03.927Z,3.58
2019-01-20T04:08:33.456Z,6.97
2019-01-20T04:11:05.044Z,2.77
2019-01-20T04:13:34.643Z,3.40
2019-01-20T04:16:04.382Z,2.47
2019-01-20T04:18:33.948Z,3.33
2019-01-20T04:21:05.688Z,1.45
2019-01-20T04:23:35.194Z,6.87
2019-01-20T04:26:04.886Z,2.52
2019-01-20T04:28:34.362Z,4.40
2019-01-20T04:31:04.011Z,6.72
2019-01-20T04:33:33.526Z,4.70
2019-01-20T04:36:03.047Z,3.12
2019-01-20T04:38:41.469Z,3.72
2019-01-20T04:41:11.001Z,4.20
2019-01-20T04:43:40.567Z,4.85
2019-01-20T04:46:10.172Z,3.40
2019-01-20T04:48:39.702Z,1.80
2019-01-20T04:51:09.341Z,3.02
2019-01-20T04:53:39.414Z,3.75
2019-01-20T04:56:09.014Z,1.90
2019-01-20T04:58:38.516Z,2.25
2019-01-20T05:01:07.996Z,2.10
2019-01-20T05:03:37.575Z,5.72
2019-01-20T05:06:07.104Z,2.58
2019-01-20T05:08:42.401Z,4.45
2019-01-20T05:11:12.009Z,3.22
2019-01-20T05:13:41.542Z,3.05
2019-01-20T05:16:11.042Z,2.37
2019-01-20T05:18:40.657Z,2.60
2019-01-20T05:21:10.176Z,2.55
2019-01-20T05:23:39.764Z,3.92
2019-01-20T05:26:09.272Z,2.50
2019-01-20T05:28:38.762Z,7.70
2019-01-20T05:31:08.275Z,2.85
2019-01-20T05:33:37.797Z,4.03
2019-01-20T05:36:07.343Z,2.35
2019-01-20T05:38:36.855Z,6.87
2019-01-20T05:41:06.351Z,3.85
2019-01-20T05:43:41.187Z,4.42
2019-01-20T05:46:10.780Z,4.47
2019-01-20T05:48:40.392Z,2.83
2019-01-20T05:51:09.914Z,14.15
2019-01-20T05:53:39.408Z,6.25
2019-01-20T05:56:10.941Z,3.70
2019-01-20T05:58:40.439Z,4.08
2019-01-20T06:01:09.975Z,6.10
2019-01-20T06:03:39.478Z,4.28
2019-01-20T06:06:09.087Z,3.37
2019-01-20T06:08:38.649Z,8.38
2019-01-20T06:11:10.177Z,5.22
2019-01-20T06:13:39.697Z,4.65
2019-01-20T06:16:09.193Z,3.58
2019-01-20T06:18:38.742Z,4.70
2019-01-20T06:21:08.297Z,15.10
2019-01-20T06:23:37.783Z,3.67
2019-01-20T06:26:07.287Z,4.12
2019-01-20T06:28:39.919Z,9.05
2019-01-20T06:31:09.448Z,3.37
2019-01-20T06:33:38.913Z,4.85
2019-01-20T06:36:08.476Z,5.72
2019-01-20T06:38:38.023Z,5.85
2019-01-20T06:41:07.608Z,4.90
2019-01-20T06:43:38.148Z,11.50
2019-01-20T06:46:07.759Z,9.58
2019-01-20T06:48:37.280Z,11.53
2019-01-20T06:51:06.832Z,3.72
2019-01-20T06:53:36.349Z,4.15
2019-01-20T06:56:06.169Z,6.30
2019-01-20T06:58:35.694Z,6.53
2019-01-20T07:01:05.427Z,5.60
2019-01-20T07:03:34.994Z,6.97
2019-01-20T07:06:06.228Z,3.60
2019-01-20T07:08:35.815Z,7.10
2019-01-20T07:11:05.456Z,8.83
2019-01-20T07:13:35.038Z,9.93
2019-01-20T07:16:04.619Z,10.35
2019-01-20T07:18:34.107Z,16.95
2019-01-20T07:21:03.668Z,12.18
2019-01-20T07:23:33.413Z,13.35
2019-01-20T07:26:02.960Z,15.50
2019-01-20T07:28:34.429Z,13.90
2019-01-20T07:31:04.075Z,20.17
2019-01-20T07:33:33.567Z,13.10
2019-01-20T07:36:03.136Z,11.93
2019-01-20T07:38:32.661Z,7.58
2019-01-20T07:41:03.978Z,14.73
2019-01-20T07:43:33.503Z,10.10
2019-01-20T07:46:10.007Z,6.95
2019-01-20T07:48:39.494Z,9.50
2019-01-20T07:51:09.191Z,4.53
2019-01-20T07:53:38.715Z,8.10
2019-01-20T07:56:08.259Z,5.75
2019-01-20T07:58:37.823Z,5.28
2019-01-20T08:01:07.357Z,6.22
2019-01-20T08:03:36.866Z,11.33
2019-01-20T08:06:06.607Z,3.45
2019-01-20T08:08:36.120Z,7.80
2019-01-20T08:11:08.537Z,5.05
2019-01-20T08:13:38.056Z,4.75
2019-01-20T08:16:07.749Z,8.15
2019-01-20T08:18:37.308Z,6.28
2019-01-20T08:21:12.920Z,3.62
2019-01-20T08:23:42.452Z,3.35
2019-01-20T08:26:12.041Z,6.97
2019-01-20T08:28:48.457Z,8.73
2019-01-20T08:31:18.035Z,7.08
2019-01-20T08:33:47.576Z,7.65
2019-01-20T08:36:17.076Z,4.12
2019-01-20T08:38:46.678Z,5.90
2019-01-20T08:41:16.185Z,7.72
2019-01-20T08:43:45.729Z,3.83
2019-01-20T08:46:21.785Z,6.47
2019-01-20T08:48:52.339Z,5.42
2019-01-20T08:51:21.871Z,8.68
2019-01-20T08:53:51.523Z,7.80
2019-01-20T08:56:21.123Z,4.42
2019-01-20T08:58:50.623Z,9.08
2019-01-20T09:01:20.160Z,9.80
2019-01-20T09:03:50.611Z,6.65
2019-01-20T09:06:20.251Z,3.45
2019-01-20T09:08:50.663Z,8.30
2019-01-20T09:11:20.246Z,9.13
2019-01-20T09:13:50.248Z,9.50
2019-01-20T09:16:19.933Z,8.00
2019-01-20T09:18:49.589Z,10.35
2019-01-20T09:21:19.174Z,7.53
2019-01-20T09:23:48.766Z,4.65
2019-01-20T09:26:18.291Z,4.97
2019-01-20T09:28:47.969Z,7.40
2019-01-20T09:31:17.635Z,9.25
2019-01-20T09:33:47.147Z,11.08
2019-01-20T09:36:16.677Z,10.20
2019-01-20T09:38:46.222Z,7.30
2019-01-20T09:41:15.814Z,9.13
2019-01-20T09:43:47.310Z,6.20
2019-01-20T09:46:16.741Z,4.12
2019-01-20T09:48:46.239Z,5.05
2019-01-20T09:51:15.808Z,11.15
2019-01-20T09:53:45.412Z,11.00
2019-01-20T09:56:14.976Z,5.10
2019-01-20T09:58:44.727Z,9.63
2019-01-20T10:01:14.256Z,4.87
2019-01-20T10:03:45.398Z,6.92
2019-01-20T10:06:14.883Z,9.38
2019-01-20T10:08:44.420Z,6.08
2019-01-20T10:11:13.983Z,7.95
2019-01-20T10:13:43.734Z,7.67
2019-01-20T10:16:13.314Z,6.95
2019-01-20T10:18:42.823Z,5.97
2019-01-20T10:21:12.329Z,7.33
2019-01-20T10:23:41.990Z,7.28
2019-01-20T10:26:11.518Z,6.45
2019-01-20T10:28:41.088Z,8.58
2019-01-20T10:31:10.620Z,11.40
2019-01-20T10:33:40.145Z,6.90
2019-01-20T10:36:09.675Z,7.78
2019-01-20T10:38:39.192Z,7.72
2019-01-20T10:41:08.778Z,8.20
2019-01-20T10:43:38.402Z,9.75
2019-01-20T10:46:07.890Z,8.38
2019-01-20T10:48:37.491Z,7.72
2019-01-20T10:51:07.127Z,9.25
2019-01-20T10:53:36.743Z,5.17
2019-01-20T10:56:06.465Z,7.78
2019-01-20T10:58:35.942Z,10.15
2019-01-20T11:01:05.599Z,8.20
2019-01-20T11:03:35.152Z,8.05
2019-01-20T11:06:04.806Z,6.85
2019-01-20T11:08:34.296Z,8.60
2019-01-20T11:11:04.380Z,10.40
2019-01-20T11:13:33.903Z,7.28
2019-01-20T11:16:03.454Z,8.83
2019-01-20T11:18:32.964Z,11.63
2019-01-20T11:21:02.522Z,6.95
2019-01-20T11:23:32.121Z,9.70
2019-01-20T11:26:01.602Z,8.88
2019-01-20T11:28:31.107Z,11.05
2019-01-20T11:31:00.691Z,10.35
2019-01-20T11:33:30.250Z,10.55
2019-01-20T11:35:59.798Z,8.08
2019-01-20T11:38:29.457Z,9.75
2019-01-20T11:40:59.023Z,12.98
2019-01-20T11:43:28.505Z,9.33
2019-01-20T11:45:58.003Z,12.37
2019-01-20T11:48:27.583Z,9.30
2019-01-20T11:50:57.253Z,10.10
2019-01-20T11:53:27.044Z,8.03
2019-01-20T11:55:56.781Z,12.20
2019-01-20T11:58:26.344Z,9.95
2019-01-20T12:00:55.936Z,9.95
2019-01-20T12:03:25.468Z,8.75
2019-01-20T12:05:54.953Z,14.10
2019-01-20T12:08:30.519Z,14.35
2019-01-20T12:10:55.738Z,10.70
2019-01-20T12:13:26.480Z,9.93
2019-01-20T12:15:56.066Z,10.45
2019-01-20T12:18:26.606Z,10.70
2019-01-20T12:20:56.185Z,10.20
2019-01-20T12:23:25.941Z,12.55
2019-01-20T12:25:55.507Z,10.00
2019-01-20T12:28:25.054Z,11.22
2019-01-20T12:30:54.602Z,11.95
2019-01-20T12:33:24.200Z,9.95
2019-01-20T12:35:53.857Z,11.45
2019-01-20T12:38:23.538Z,13.10
2019-01-20T12:40:53.133Z,14.07
2019-01-20T12:43:22.725Z,10.08
2019-01-20T12:45:52.307Z,10.85
2019-01-20T12:48:22.889Z,10.50
2019-01-20T12:50:52.388Z,11.55
2019-01-20T12:53:22.033Z,6.83
2019-01-20T12:55:51.626Z,9.48
2019-01-20T12:58:23.429Z,13.58
2019-01-20T13:00:54.418Z,8.30
2019-01-20T13:03:24.128Z,8.68
2019-01-20T13:05:58.224Z,9.43
2019-01-20T13:08:27.849Z,10.98
2019-01-20T13:10:57.320Z,12.40
2019-01-20T13:13:26.867Z,11.10
2019-01-20T13:15:56.348Z,8.63
2019-01-20T13:18:25.915Z,8.20
2019-01-20T13:20:55.493Z,12.00
2019-01-20T13:23:25.082Z,7.65
2019-01-20T13:25:54.628Z,6.95
2019-01-20T13:28:24.197Z,8.38
2019-01-20T13:30:53.692Z,8.28
2019-01-20T13:33:23.225Z,8.18
2019-01-20T13:35:55.283Z,9.10
2019-01-20T13:38:24.790Z,10.58
2019-01-20T13:40:59.226Z,9.33
2019-01-20T13:43:28.857Z,8.15
2019-01-20T13:45:58.444Z,8.25
2019-01-20T13:48:27.960Z,8.90
2019-01-20T13:50:57.476Z,5.85
2019-01-20T13:53:27.105Z,5.83
2019-01-20T13:56:01.140Z,11.38
2019-01-20T13:58:28.048Z,9.33
2019-01-20T14:00:57.652Z,9.15
2019-01-20T14:03:27.145Z,10.25
2019-01-20T14:05:56.728Z,8.25
2019-01-20T14:08:26.195Z,8.80
2019-01-20T14:10:55.700Z,12.82
2019-01-20T14:13:25.235Z,8.95
2019-01-20T14:15:56.825Z,7.90
2019-01-20T14:18:29.384Z,8.28
2019-01-20T14:20:58.895Z,10.35
2019-01-20T14:23:28.438Z,5.65
2019-01-20T14:25:58.030Z,7.53
2019-01-20T14:28:27.532Z,5.67
2019-01-20T14:30:57.961Z,9.13
2019-01-20T14:33:30.678Z,6.47
2019-01-20T14:36:00.224Z,6.33
2019-01-20T14:38:29.737Z,5.40
2019-01-20T14:40:59.217Z,8.25
2019-01-20T14:43:28.800Z,7.97
2019-01-20T14:45:58.292Z,11.22
2019-01-20T14:48:27.804Z,8.23
2019-01-20T14:50:57.301Z,9.50
2019-01-20T14:53:26.827Z,10.20
2019-01-20T14:55:56.375Z,9.78
2019-01-20T14:58:26.274Z,9.18
2019-01-20T15:00:55.948Z,19.55
2019-01-20T15:03:25.594Z,7.65
2019-01-20T15:05:55.172Z,8.58
2019-01-20T15:08:24.684Z,8.60
2019-01-20T15:10:54.256Z,9.03
2019-01-20T15:13:23.835Z,7.20
2019-01-20T15:15:53.445Z,11.00
2019-01-20T15:18:22.931Z,7.97
2019-01-20T15:20:52.519Z,10.25
2019-01-20T15:23:22.151Z,9.05
2019-01-20T15:25:55.099Z,6.85
2019-01-20T15:28:25.657Z,8.53
2019-01-20T15:30:55.159Z,7.92
2019-01-20T15:33:24.875Z,11.63
2019-01-20T15:35:54.442Z,11.73
2019-01-20T15:38:24.001Z,9.25
2019-01-20T15:40:53.507Z,8.90
2019-01-20T15:43:23.041Z,9.50
2019-01-20T15:45:52.599Z,9.20
2019-01-20T15:48:22.165Z,9.90
2019-01-20T15:50:51.744Z,8.48
2019-01-20T15:53:21.377Z,12.50
2019-01-20T15:55:51.886Z,9.73
2019-01-20T15:58:21.374Z,10.50
2019-01-20T16:00:51.107Z,8.38
2019-01-20T16:03:20.699Z,13.60
2019-01-20T16:05:50.228Z,10.63
2019-01-20T16:08:20.617Z,9.20
2019-01-20T16:10:50.144Z,8.53
2019-01-20T16:13:19.719Z,7.85
2019-01-20T16:15:49.204Z,9.83
2019-01-20T16:18:18.802Z,21.60
2019-01-20T16:20:48.361Z,11.57
2019-01-20T16:23:17.847Z,12.65
2019-01-20T16:25:47.440Z,12.95
2019-01-20T16:28:19.048Z,9.40
2019-01-20T16:30:48.734Z,16.55
2019-01-20T16:33:18.378Z,14.07
2019-01-20T16:35:48.108Z,10.03
2019-01-20T16:38:17.600Z,12.68
2019-01-20T16:40:53.112Z,12.07
2019-01-20T16:43:22.754Z,12.05
2019-01-20T16:45:52.314Z,15.60
2019-01-20T16:48:21.864Z,17.65
2019-01-20T16:50:51.508Z,14.07
2019-01-20T16:53:21.075Z,9.43
2019-01-20T16:55:50.672Z,8.03
2019-01-20T16:58:20.248Z,8.65
2019-01-20T17:00:49.914Z,14.25
2019-01-20T17:03:19.481Z,15.70
2019-01-20T17:05:49.079Z,10.45
2019-01-20T17:08:19.817Z,14.55
2019-01-20T17:10:49.406Z,12.37
2019-01-20T17:13:18.906Z,8.80
2019-01-20T17:15:48.404Z,13.18
2019-01-20T17:18:18.001Z,13.55
2019-01-20T17:23:11.498Z,32.38
2019-01-20T17:25:41.195Z,19.15
2019-01-20T17:28:10.819Z,23.12
2019-01-20T17:30:41.113Z,17.60
2019-01-20T17:33:11.837Z,18.37
2019-01-20T17:35:41.424Z,22.77
2019-01-20T17:38:11.198Z,15.95
2019-01-20T17:40:40.742Z,16.15
2019-01-20T17:43:10.347Z,19.00
2019-01-20T17:45:48.494Z,24.63
2019-01-20T17:48:16.553Z,18.10
2019-01-20T17:50:47.191Z,22.40
2019-01-20T17:53:17.776Z,22.05
2019-01-20T17:55:47.376Z,17.48
2019-01-20T17:58:18.468Z,22.73
2019-01-20T18:00:49.771Z,13.05
2019-01-20T18:03:19.578Z,24.45
2019-01-20T18:05:51.201Z,16.52
2019-01-20T18:08:20.728Z,19.80
2019-01-20T18:10:52.346Z,35.45
2019-01-20T18:13:22.009Z,22.95
2019-01-20T18:15:54.791Z,23.10
2019-01-20T18:18:22.878Z,16.55
2019-01-20T18:20:52.564Z,21.87
2019-01-20T18:23:22.160Z,25.97
2019-01-20T18:25:51.692Z,22.60
2019-01-20T18:28:21.275Z,31.12
2019-01-20T18:30:50.792Z,23.73
2019-01-20T18:33:20.393Z,22.95
2019-01-20T18:35:50.068Z,25.12
2019-01-20T18:38:19.653Z,27.25
2019-01-20T18:40:49.324Z,23.22
2019-01-20T18:43:18.935Z,25.52
2019-01-20T18:45:48.555Z,35.68
2019-01-20T18:48:18.066Z,26.68
2019-01-20T18:50:47.742Z,31.68
2019-01-20T18:53:18.201Z,28.67
2019-01-20T18:55:47.797Z,30.40
2019-01-20T18:58:17.331Z,34.67
2019-01-20T19:00:47.854Z,27.02
2019-01-20T19:03:17.381Z,23.27
2019-01-20T19:05:47.080Z,20.08
2019-01-20T19:08:16.645Z,17.80
2019-01-20T19:10:46.284Z,21.68
2019-01-20T19:13:15.832Z,46.37
2019-01-20T19:15:46.332Z,37.17
2019-01-20T19:18:19.085Z,33.08
2019-01-20T19:20:47.276Z,25.90
2019-01-20T19:23:17.075Z,25.82
2019-01-20T19:25:46.660Z,28.90
2019-01-20T19:28:17.086Z,34.55
2019-01-20T19:30:47.619Z,16.73
2019-01-20T19:33:17.214Z,18.77
2019-01-20T19:35:46.847Z,29.80
2019-01-20T19:38:16.461Z,25.70
2019-01-20T19:40:46.056Z,34.63
2019-01-20T19:43:15.547Z,24.12
2019-01-20T19:45:45.246Z,22.70
2019-01-20T19:48:20.072Z,20.40
2019-01-20T19:50:46.057Z,15.32
2019-01-20T19:53:15.612Z,15.70
2019-01-20T19:55:45.278Z,13.38
2019-01-20T19:58:14.884Z,16.12
2019-01-20T20:00:44.374Z,11.28
2019-01-20T20:03:14.182Z,14.65
2019-01-20T20:05:43.772Z,19.82
2019-01-20T20:08:13.487Z,23.45
2019-01-20T20:10:43.037Z,46.70
2019-01-20T20:13:12.693Z,38.30
2019-01-20T20:15:42.268Z,34.27
2019-01-20T20:18:11.800Z,21.17
2019-01-20T20:20:41.361Z,16.90
2019-01-20T20:23:10.897Z,16.80
2019-01-20T20:25:40.563Z,17.80
2019-01-20T20:28:10.327Z,12.80
2019-01-20T20:30:39.852Z,17.15
2019-01-20T20:33:09.572Z,35.78
2019-01-20T20:35:39.166Z,16.82
2019-01-20T20:38:08.863Z,14.13
2019-01-20T20:40:38.445Z,24.05
2019-01-20T20:43:08.150Z,21.80
2019-01-20T20:45:37.672Z,21.07
2019-01-20T20:48:07.323Z,12.20
2019-01-20T20:50:37.086Z,16.62
2019-01-20T20:53:08.626Z,15.30
2019-01-20T20:55:39.968Z,26.05
2019-01-20T20:58:09.469Z,27.98
2019-01-20T21:00:40.500Z,36.50
2019-01-20T21:03:12.511Z,22.07
2019-01-20T21:05:42.206Z,33.30
2019-01-20T21:10:39.678Z,27.48
2019-01-20T21:13:09.551Z,17.90
2019-01-20T21:15:39.615Z,15.20
2019-01-20T21:18:09.968Z,14.10
2019-01-20T21:20:42.235Z,17.75
2019-01-20T21:23:12.595Z,12.00
2019-01-20T21:25:44.282Z,19.90
2019-01-20T21:28:14.977Z,18.10
2019-01-20T21:30:46.746Z,16.87
2019-01-20T21:33:23.594Z,20.75
2019-01-20T21:35:53.248Z,10.93
2019-01-20T21:38:22.981Z,18.48
2019-01-20T21:40:52.631Z,14.65
2019-01-20T21:43:22.211Z,14.23
2019-01-20T21:45:52.293Z,19.15
2019-01-20T21:48:21.996Z,15.90
2019-01-20T21:50:53.283Z,15.63
2019-01-20T21:53:22.917Z,19.20
2019-01-20T21:55:54.607Z,16.75
2019-01-20T21:58:27.386Z,13.08
2019-01-20T22:00:56.968Z,17.02
2019-01-20T22:03:26.527Z,18.90
2019-01-20T22:05:56.145Z,16.20
2019-01-20T22:08:26.782Z,18.52
2019-01-20T22:10:56.432Z,21.90
2019-01-20T22:13:27.038Z,12.73
2019-01-20T22:15:56.640Z,13.65
2019-01-20T22:18:26.632Z,23.15
2019-01-20T22:20:56.240Z,12.50
2019-01-20T22:23:26.838Z,21.55
2019-01-20T22:25:56.943Z,22.05
2019-01-20T22:28:27.882Z,12.45
2019-01-20T22:30:57.479Z,18.85
2019-01-20T22:33:26.990Z,16.57
2019-01-20T22:36:00.127Z,12.03
2019-01-20T22:38:29.726Z,14.53
2019-01-20T22:40:59.402Z,12.45
2019-01-20T22:43:29.068Z,16.20
2019-01-20T22:45:58.715Z,10.88
2019-01-20T22:48:28.312Z,11.18
2019-01-20T22:50:57.874Z,15.13
2019-01-20T22:53:27.359Z,11.28
2019-01-20T22:55:57.028Z,17.27
2019-01-20T22:58:26.554Z,16.97
2019-01-20T23:00:57.673Z,10.88
2019-01-20T23:03:27.349Z,12.85
2019-01-20T23:05:56.921Z,19.05
2019-01-20T23:08:26.635Z,7.30
2019-01-20T23:10:56.287Z,15.95
2019-01-20T23:13:25.845Z,11.63
2019-01-20T23:15:55.396Z,15.08
2019-01-20T23:18:25.158Z,11.55
2019-01-20T23:20:58.847Z,13.18
2019-01-20T23:23:28.429Z,14.23
2019-01-20T23:25:57.988Z,12.40
2019-01-20T23:28:27.539Z,12.45
2019-01-20T23:30:57.088Z,17.17
2019-01-20T23:33:26.659Z,10.93
2019-01-20T23:35:56.381Z,8.38
2019-01-20T23:38:25.985Z,15.83
2019-01-20T23:40:55.489Z,13.95
2019-01-20T23:43:25.008Z,18.12
2019-01-20T23:45:54.515Z,10.48
2019-01-20T23:48:24.108Z,8.65
2019-01-20T23:50:53.767Z,15.48
2019-01-20T23:53:23.290Z,8.90
2019-01-20T23:55:52.872Z,15.13
2019-01-20T23:58:22.481Z,16.82
